Time;durP1;ratioP1;P1;durP2;ratioP2;P2;SDS_P1;SDS_P2;PMS_P1;PMS_P2;Temp;Humidity;BMP_temperature;BMP_pressure;BME280_temperature;BME280_humidity;BME280_pressure;Samples;Min_cycle;Max_cycle;Signal;HPM_P1;HPM_P2
2022/12/26 00:09:26;;;;;;;26.20;18.70;;;;;;;3.66;100.00;99544.23;435350;1281;142251;-63
2022/12/26 00:19:32;;;;;;;26.60;16.80;;;;;;;3.68;100.00;99531.54;435322;1274;142464;-62
2022/12/26 00:29:38;;;;;;;26.20;18.30;;;;;;;3.68;100.00;99514.20;419080;1275;143367;-63
2022/12/26 00:39:45;;;;;;;22.90;17.20;;;;;;;3.65;100.00;99489.21;428544;1281;142253;-63
2022/12/26 00:49:51;;;;;;;19.30;15.80;;;;;;;3.65;100.00;99464.83;422039;1280;142199;-64
2022/12/26 01:00:17;;;;;;;22.30;15.40;;;;;;;3.63;100.00;99446.19;435221;1284;143061;-63
2022/12/26 01:10:24;;;;;;;21.20;16.30;;;;;;;3.65;100.00;99431.58;428414;1280;175311;-63
2022/12/26 01:20:30;;;;;;;20.10;14.00;;;;;;;3.65;100.00;99407.19;425792;1279;141764;-63
2022/12/26 01:30:36;;;;;;;17.90;14.70;;;;;;;3.65;100.00;99404.75;435633;1280;141949;-64
2022/12/26 01:40:45;;;;;;;22.30;15.50;;;;;;;3.68;100.00;99406.56;424740;1281;142643;-63
2022/12/26 01:50:55;;;;;;;20.70;15.10;;;;;;;3.69;100.00;99421.55;436281;1281;142946;-64
2022/12/26 02:01:04;;;;;;;20.90;14.70;;;;;;;3.73;100.00;99414.31;435447;1281;141697;-63
2022/12/26 02:11:16;;;;;;;23.80;17.70;;;;;;;3.73;100.00;99384.17;436291;1280;143090;-63
2022/12/26 02:22:16;;;;;;;22.50;16.90;;;;;;;3.73;100.00;99369.63;435539;1282;142736;-63
2022/12/26 02:32:33;;;;;;;20.40;15.90;;;;;;;3.73;100.00;99339.84;423692;1278;141757;-63
2022/12/26 02:42:51;;;;;;;23.20;16.40;;;;;;;3.71;100.00;99327.66;421205;1281;142546;-63
2022/12/26 03:14:07;;;;;;;23.50;17.60;;;;;;;3.58;100.00;99256.33;421968;1281;143041;-61
2022/12/26 03:24:16;;;;;;;24.40;17.10;;;;;;;3.68;100.00;99231.32;428472;1280;141795;-63
2022/12/26 03:34:22;;;;;;;23.30;16.60;;;;;;;3.79;100.00;99216.34;423279;1281;142021;-62
2022/12/26 04:47:21;;;;;;;22.90;16.80;;;;;;;4.17;100.00;99153.73;429275;1275;142082;-66
2022/12/26 04:57:27;;;;;;;20.80;15.80;;;;;;;4.24;100.00;99163.84;420834;1275;141986;-65
2022/12/26 05:28:41;;;;;;;27.00;17.40;;;;;;;4.36;100.00;99124.65;421134;1281;206128;-65
2022/12/26 05:38:48;;;;;;;18.20;14.10;;;;;;;4.36;100.00;99105.77;419315;1276;143139;-65
2022/12/26 05:48:54;;;;;;;21.50;14.50;;;;;;;4.42;100.00;99097.71;427289;1275;142285;-65
2022/12/26 05:59:01;;;;;;;19.30;14.20;;;;;;;4.51;100.00;99101.09;423736;1281;141618;-66
2022/12/26 06:09:07;;;;;;;16.60;12.70;;;;;;;4.64;100.00;99091.31;425295;1275;142439;-64
2022/12/26 06:19:13;;;;;;;22.10;15.20;;;;;;;4.85;100.00;99090.98;425320;1281;141404;-65
2022/12/26 06:29:19;;;;;;;20.20;14.80;;;;;;;4.96;100.00;99091.00;422422;1275;141714;-64
2022/12/26 06:39:25;;;;;;;31.00;18.20;;;;;;;5.01;100.00;99088.16;423906;1274;142617;-66
2022/12/26 06:49:31;;;;;;;16.90;12.30;;;;;;;5.09;100.00;99068.65;435007;1279;141581;-65
2022/12/26 06:59:38;;;;;;;17.00;11.70;;;;;;;5.27;100.00;99069.88;425901;1274;142420;-65
2022/12/26 07:09:44;;;;;;;14.80;10.90;;;;;;;5.46;100.00;99076.91;419506;1276;143031;-65
2022/12/26 07:19:51;;;;;;;13.90;11.10;;;;;;;5.70;100.00;99072.38;430888;1279;143170;-67
2022/12/26 07:29:57;;;;;;;10.70;9.00;;;;;;;5.94;100.00;99068.16;421900;1274;143302;-64
2022/12/26 07:40:03;;;;;;;14.10;11.10;;;;;;;6.21;100.00;99062.73;420126;1281;142548;-65
2022/12/26 07:50:10;;;;;;;14.20;11.60;;;;;;;6.41;100.00;99084.60;424494;1274;141656;-66
2022/12/26 08:00:18;;;;;;;15.00;12.30;;;;;;;6.54;100.00;99072.30;423197;1268;145158;-65
2022/12/26 08:10:24;;;;;;;13.50;11.50;;;;;;;6.83;100.00;99066.30;430365;1281;142079;-65
2022/12/26 08:20:30;;;;;;;11.60;9.40;;;;;;;7.15;100.00;99080.83;418901;1275;141391;-63
2022/12/26 08:30:38;;;;;;;11.80;9.10;;;;;;;7.32;100.00;99079.35;429792;1281;142693;-64
2022/12/26 08:40:44;;;;;;;11.80;9.90;;;;;;;7.36;100.00;99068.83;435448;1274;141881;-63
2022/12/26 08:50:54;;;;;;;10.60;9.30;;;;;;;7.41;100.00;99074.98;434231;1282;142673;-65
2022/12/26 09:01:09;;;;;;;12.40;9.40;;;;;;;7.45;100.00;99080.36;420061;1275;142113;-64
2022/12/26 09:11:17;;;;;;;13.80;11.00;;;;;;;7.47;100.00;99072.92;420933;1274;142145;-64
2022/12/26 09:21:24;;;;;;;10.40;8.00;;;;;;;7.49;100.00;99083.92;425337;1281;142101;-64
2022/12/26 09:31:31;;;;;;;11.80;9.30;;;;;;;7.53;100.00;99073.60;434755;1283;141851;-64
2022/12/26 09:41:56;;;;;;;9.30;8.10;;;;;;;7.65;100.00;99076.73;436397;1283;142041;-63
2022/12/26 09:52:09;;;;;;;13.90;9.60;;;;;;;7.75;100.00;99072.82;435613;1273;142899;-64
2022/12/26 10:02:21;;;;;;;11.20;8.30;;;;;;;8.00;100.00;99058.95;429797;1276;142226;-63
2022/12/26 10:12:45;;;;;;;10.20;9.10;;;;;;;8.19;100.00;99071.55;434939;1277;142195;-63
2022/12/26 10:23:11;;;;;;;8.20;7.40;;;;;;;8.37;100.00;99066.24;433851;1274;142109;-63
2022/12/26 10:33:25;;;;;;;9.70;8.00;;;;;;;8.72;100.00;99068.39;435667;1282;143757;-64
2022/12/26 10:43:33;;;;;;;10.90;8.10;;;;;;;9.47;100.00;99053.55;436558;1274;142598;-63
2022/12/26 10:53:40;;;;;;;;;;;;;;;10.00;100.00;99045.89;426205;1275;141222;-65
2022/12/26 11:03:55;;;;;;;8.10;7.30;;;;;;;9.87;100.00;99035.46;435974;1281;129824;-64
2022/12/26 11:14:03;;;;;;;7.40;6.10;;;;;;;9.85;100.00;99042.77;436382;1281;141810;-64
2022/12/26 11:24:19;;;;;;;8.20;6.80;;;;;;;9.73;99.98;99040.98;435721;1282;165572;-64
2022/12/26 11:34:31;;;;;;;11.40;7.60;;;;;;;9.96;99.75;99032.54;436373;1275;142251;-64
2022/12/26 11:44:40;;;;;;;9.20;6.50;;;;;;;10.26;99.46;99014.86;436388;1274;142492;-64
2022/12/26 11:54:51;;;;;;;6.10;5.40;;;;;;;10.45;98.68;99009.30;425561;1279;196828;-64
2022/12/26 12:05:06;;;;;;;7.80;4.70;;;;;;;10.36;97.94;98999.13;426574;1274;142230;-64
2022/12/26 12:15:21;;;;;;;8.50;5.20;;;;;;;10.18;98.06;99026.66;435372;1276;141746;-62
2022/12/26 12:25:51;;;;;;;6.90;5.10;;;;;;;10.39;97.89;99025.83;436079;1274;142645;-65
2022/12/26 12:36:08;;;;;;;9.00;6.90;;;;;;;10.45;97.26;99013.92;436296;1281;142214;-64
2022/12/26 12:46:22;;;;;;;8.20;5.90;;;;;;;10.54;96.71;99021.85;435747;1268;198020;-64
2022/12/26 12:56:41;;;;;;;9.20;6.40;;;;;;;10.48;96.19;99022.94;436230;1282;143403;-64
2022/12/26 13:06:51;;;;;;;8.40;6.50;;;;;;;10.19;96.02;99013.27;435672;1281;143463;-64
2022/12/26 13:17:02;;;;;;;7.20;6.30;;;;;;;9.95;96.13;98993.81;436333;1281;141709;-64
2022/12/26 13:27:15;;;;;;;8.50;6.60;;;;;;;9.77;96.38;99006.77;435640;1281;143874;-62
2022/12/26 13:37:54;;;;;;;8.60;6.60;;;;;;;9.62;96.57;99006.71;436430;1273;143000;-63
2022/12/26 13:48:00;;;;;;;8.00;6.30;;;;;;;9.49;96.89;98993.65;426991;1273;142074;-64
2022/12/26 13:58:29;;;;;;;9.00;7.10;;;;;;;9.40;96.92;98996.23;435911;1280;142077;-64
2022/12/26 14:08:44;;;;;;;11.10;7.40;;;;;;;9.33;97.19;99013.41;436322;1274;142504;-64
2022/12/26 14:19:03;;;;;;;10.90;7.10;;;;;;;9.28;97.23;99012.56;427610;1282;144929;-63
2022/12/26 14:29:30;;;;;;;7.60;6.70;;;;;;;9.24;97.11;99012.10;436614;1287;142194;-64
2022/12/26 14:39:46;;;;;;;10.30;6.40;;;;;;;9.20;97.03;99016.92;435759;1281;142058;-63
2022/12/26 14:49:52;;;;;;;9.20;7.00;;;;;;;9.16;97.18;99012.88;436663;1274;142055;-64
2022/12/26 15:00:29;;;;;;;8.60;6.70;;;;;;;9.12;97.18;99010.48;436651;1284;141792;-63
2022/12/26 15:10:57;;;;;;;11.80;7.90;;;;;;;8.99;97.10;99001.73;436542;1281;196486;-64
2022/12/26 15:21:23;;;;;;;9.50;6.40;;;;;;;8.72;97.38;99006.27;436663;1274;142747;-64
2022/12/26 15:31:56;;;;;;;11.30;6.80;;;;;;;8.64;97.86;99004.90;436347;1274;214400;-64
2022/12/26 15:42:19;;;;;;;9.00;7.40;;;;;;;8.59;98.22;98999.48;436700;1281;142158;-64
2022/12/26 15:52:39;;;;;;;10.40;7.30;;;;;;;8.48;98.86;98997.20;436433;1278;210947;-64
2022/12/26 16:02:49;;;;;;;7.90;6.00;;;;;;;8.38;99.12;99005.66;436526;1282;141874;-63
2022/12/26 16:13:03;;;;;;;9.50;6.30;;;;;;;8.41;99.53;99013.45;435966;1282;141848;-63
2022/12/26 16:23:15;;;;;;;8.50;5.70;;;;;;;8.49;99.84;99008.78;436644;1282;141824;-64
2022/12/26 16:33:21;;;;;;;13.90;6.90;;;;;;;8.54;99.99;99004.15;435991;1281;141928;-64
2022/12/26 16:43:29;;;;;;;10.80;8.70;;;;;;;8.52;100.00;99008.62;430913;1278;142699;-64
2022/12/26 16:53:45;;;;;;;12.10;8.50;;;;;;;8.36;100.00;99021.65;431623;1275;141585;-62
2022/12/26 17:03:56;;;;;;;8.00;6.90;;;;;;;8.14;100.00;99026.71;419963;1281;141747;-64
2022/12/26 17:14:05;;;;;;;8.30;6.00;;;;;;;8.02;100.00;99036.32;420029;1281;141826;-64
2022/12/26 17:24:24;;;;;;;8.70;5.80;;;;;;;7.94;100.00;99041.35;422711;1281;141270;-64
2022/12/26 17:34:30;;;;;;;6.70;6.00;;;;;;;7.88;100.00;99034.23;436703;1281;142704;-63
2022/12/26 17:44:38;;;;;;;9.20;5.60;;;;;;;7.82;100.00;99039.30;436648;1282;145188;-63
2022/12/26 17:54:45;;;;;;;6.80;5.50;;;;;;;7.74;100.00;99042.72;428649;1274;141409;-63
2022/12/26 18:04:52;;;;;;;6.90;4.70;;;;;;;7.73;100.00;99055.72;436740;1278;141884;-64
2022/12/26 18:14:58;;;;;;;6.90;4.40;;;;;;;7.75;100.00;99067.58;436680;1282;142352;-64
2022/12/26 18:25:09;;;;;;;5.80;4.60;;;;;;;7.72;100.00;99077.19;422876;1281;212116;-64
2022/12/26 18:35:16;;;;;;;6.50;3.80;;;;;;;7.67;100.00;99076.44;436690;1281;142113;-64
2022/12/26 18:45:22;;;;;;;4.10;3.30;;;;;;;7.59;100.00;99074.31;435880;1281;141849;-64
2022/12/26 18:55:28;;;;;;;5.50;4.50;;;;;;;7.48;100.00;99072.66;435300;1274;141425;-64
2022/12/26 19:05:35;;;;;;;4.70;4.20;;;;;;;7.39;100.00;99083.33;424099;1281;141698;-64
2022/12/26 19:15:46;;;;;;;5.60;4.90;;;;;;;7.26;100.00;99085.11;432806;1280;141787;-67
2022/12/26 19:25:52;;;;;;;8.20;5.90;;;;;;;7.17;100.00;99098.85;436470;1282;142423;-64
2022/12/26 19:35:58;;;;;;;6.50;5.90;;;;;;;7.07;100.00;99106.19;431919;1275;142625;-63
2022/12/26 19:46:08;;;;;;;6.70;6.10;;;;;;;6.93;100.00;99099.35;431057;1283;141446;-62
2022/12/26 19:56:16;;;;;;;7.70;6.90;;;;;;;6.75;100.00;99103.82;435230;1278;142421;-63
2022/12/26 20:06:25;;;;;;;13.80;9.70;;;;;;;6.64;100.00;99104.09;432001;1285;142938;-64
2022/12/26 20:16:31;;;;;;;7.60;6.30;;;;;;;6.62;100.00;99111.52;426118;1281;143483;-64
2022/12/26 20:26:57;;;;;;;8.40;7.60;;;;;;;6.71;100.00;99126.67;419667;1281;141914;-63
2022/12/26 20:37:03;;;;;;;8.10;6.30;;;;;;;6.75;100.00;99146.95;435708;1282;141352;-64
2022/12/26 20:47:09;;;;;;;9.30;6.50;;;;;;;6.81;100.00;99158.10;430290;1275;142077;-64
2022/12/26 20:57:15;;;;;;;8.60;6.90;;;;;;;6.88;100.00;99158.06;435660;1281;141495;-63
2022/12/26 21:07:21;;;;;;;8.70;7.80;;;;;;;6.95;100.00;99159.11;436493;1285;141441;-66
2022/12/26 21:17:27;;;;;;;11.00;9.20;;;;;;;6.97;100.00;99152.00;431688;1281;141115;-64
2022/12/26 21:27:34;;;;;;;13.40;10.60;;;;;;;6.93;100.00;99161.66;418933;1279;141745;-64
2022/12/26 21:37:50;;;;;;;10.60;7.80;;;;;;;6.85;100.00;99155.11;432237;1281;142060;-66
2022/12/26 21:47:56;;;;;;;9.00;7.80;;;;;;;6.77;100.00;99148.79;429320;1282;141705;-66
2022/12/26 21:58:03;;;;;;;12.40;8.70;;;;;;;6.63;100.00;99156.15;435676;1282;143033;-65
2022/12/26 22:08:11;;;;;;;9.40;7.90;;;;;;;6.52;100.00;99144.52;436320;1274;142056;-65
2022/12/26 22:18:17;;;;;;;9.10;7.00;;;;;;;6.40;100.00;99140.13;435688;1282;142033;-65
2022/12/26 22:28:24;;;;;;;6.20;5.60;;;;;;;6.32;100.00;99157.79;436412;1282;141558;-65
2022/12/26 22:38:31;;;;;;;7.60;5.90;;;;;;;6.28;100.00;99153.64;435631;1282;142578;-64
2022/12/26 22:48:37;;;;;;;6.30;5.10;;;;;;;6.27;100.00;99149.86;419041;1275;142153;-65
2022/12/26 22:58:43;;;;;;;7.20;6.00;;;;;;;6.23;100.00;99145.73;423203;1281;141724;-64
2022/12/26 23:08:53;;;;;;;6.30;5.70;;;;;;;6.16;100.00;99134.29;424882;1279;141639;-65
2022/12/26 23:39:48;;;;;;;8.20;7.40;;;;;;;6.13;100.00;99104.92;435546;1281;144959;-65
2022/12/26 23:49:54;;;;;;;7.90;6.80;;;;;;;6.13;100.00;99084.06;436501;1281;141942;-65
